PANC/ANC METAR and TAF weather

Enter ICAO airport designator
Station Type Date Time Source
PANC METAR 2019/10/15 07:53 UTC NOAA

PANC 150753Z 01008KT 10SM CLR 01/M08 A2938 RMK AO2 SLP951 T00061083


Station Type Date Time Source
PANC Decoded METAR 2019/10/15 07:53 UTC NOAA

TED STEVENS ANCHORAGE INTERNATIONAL , AK, United States (PANC) 61-10N 150-02W 48M
Oct 15, 2019 - 03:53 AM EDT / 2019.10.15 0753 UTC
Wind: from the N (010 degrees) at 9 MPH (8 KT):0
Visibility: 10 mile(s):0
Sky conditions: clear
Temperature: 33.1 F (0.6 C)
Windchill: 24 F (-4 C):1
Dew Point: 17.1 F (-8.3 C)
Relative Humidity: 51%
Pressure (altimeter): 29.38 in. Hg (994 hPa)
ob: PANC 150753Z 01008KT 10SM CLR 01/M08 A2938 RMK AO2 SLP951 T00061083
cycle: 8

Station Type Date Time Source
PANC TAF 2019/10/15 06:30 UTC NOAA

TAF PANC 150527Z 1506/1612 03007KT P6SM SCT120 BKN200
FM160800 VRB04KT P6SM OVC060

Example: see airport list